Time;durP1;ratioP1;P1;durP2;ratioP2;P2;SDS_P1;SDS_P2;PMS_P1;PMS_P2;Temp;Humidity;BMP_temperature;BMP_pressure;BME280_temperature;BME280_humidity;BME280_pressure;Samples;Min_cycle;Max_cycle;Signal;HPM_P1;HPM_P2
2023/02/09 00:01:12;;;;;;;8.07;5.40;;;5.00;1.00;;;;;;5024327;28;20049;-50
2023/02/09 00:03:39;;;;;;;8.73;5.37;;;5.00;1.00;;;;;;5034063;28;20046;-47
2023/02/09 00:06:07;;;;;;;9.27;5.70;;;5.00;1.00;;;;;;5032990;28;20021;-49
2023/02/09 00:08:33;;;;;;;6.97;4.87;;;5.00;1.00;;;;;;5034273;28;20041;-48
2023/02/09 00:10:59;;;;;;;9.87;5.17;;;5.20;1.00;;;;;;5034760;28;20033;-49
2023/02/09 00:13:25;;;;;;;7.63;5.00;;;5.20;1.00;;;;;;5032832;28;20349;-48
2023/02/09 00:15:52;;;;;;;7.87;5.30;;;5.10;1.00;;;;;;5033746;28;20083;-51
2023/02/09 00:18:19;;;;;;;9.30;5.03;;;5.20;1.00;;;;;;5034297;28;20029;-47
2023/02/09 00:20:44;;;;;;;7.00;5.00;;;5.30;1.00;;;;;;5033523;28;20547;-48
2023/02/09 00:23:10;;;;;;;7.87;5.17;;;5.40;1.00;;;;;;5034131;28;20115;-51
2023/02/09 00:25:39;;;;;;;8.57;5.83;;;5.20;1.00;;;;;;5048061;28;20102;-49
2023/02/09 00:28:05;;;;;;;8.67;5.60;;;5.20;1.00;;;;;;5033885;28;20029;-48
2023/02/09 00:30:31;;;;;;;8.20;5.30;;;5.10;1.00;;;;;;5033988;28;20045;-48
2023/02/09 00:32:56;;;;;;;6.90;4.70;;;5.20;1.00;;;;;;5033825;28;20021;-48
2023/02/09 00:35:22;;;;;;;8.30;5.53;;;5.40;1.00;;;;;;5032286;28;20030;-50
2023/02/09 00:37:48;;;;;;;8.83;5.20;;;5.50;1.00;;;;;;5033743;28;20022;-49
2023/02/09 00:40:13;;;;;;;7.53;5.30;;;5.30;1.00;;;;;;5033321;28;20061;-50
2023/02/09 00:42:39;;;;;;;8.60;5.73;;;5.00;1.00;;;;;;5033782;28;20416;-49
2023/02/09 00:45:05;;;;;;;9.03;5.13;;;5.30;1.00;;;;;;5033254;28;20445;-48
2023/02/09 00:47:31;;;;;;;8.00;5.27;;;5.10;1.00;;;;;;5033282;28;20502;-50
2023/02/09 00:49:56;;;;;;;9.17;6.27;;;5.00;1.00;;;;;;5033802;28;20072;-48
2023/02/09 00:52:22;;;;;;;9.87;5.27;;;5.10;1.00;;;;;;5031816;28;20021;-51
2023/02/09 00:54:47;;;;;;;10.23;5.23;;;5.00;1.00;;;;;;5033923;28;20021;-49
2023/02/09 00:57:13;;;;;;;8.63;5.33;;;5.10;1.00;;;;;;5033311;28;20494;-51
2023/02/09 00:59:39;;;;;;;9.20;5.20;;;5.20;1.00;;;;;;5032987;28;20435;-50
2023/02/09 01:02:05;;;;;;;9.00;5.40;;;5.10;1.00;;;;;;5033428;28;20021;-48
2023/02/09 01:04:31;;;;;;;8.27;5.40;;;5.10;1.00;;;;;;5032580;28;20059;-48
2023/02/09 01:06:57;;;;;;;9.23;5.80;;;5.30;1.00;;;;;;5032842;28;20367;-49
2023/02/09 01:09:23;;;;;;;7.43;5.70;;;5.40;1.00;;;;;;5028606;28;20033;-50
2023/02/09 01:11:48;;;;;;;8.20;5.53;;;5.40;1.00;;;;;;5032977;28;20431;-47
2023/02/09 01:14:14;;;;;;;9.00;5.70;;;5.20;1.00;;;;;;5033539;28;20033;-49
2023/02/09 01:16:40;;;;;;;8.63;5.63;;;5.30;1.00;;;;;;5032733;28;20032;-50
2023/02/09 01:19:06;;;;;;;8.83;5.63;;;5.20;1.00;;;;;;5033106;28;20025;-49
2023/02/09 01:21:31;;;;;;;9.20;5.17;;;5.00;1.00;;;;;;5032609;28;20356;-51
2023/02/09 01:23:58;;;;;;;7.93;5.80;;;5.10;1.00;;;;;;5036669;28;20029;-51
2023/02/09 01:26:23;;;;;;;8.23;5.50;;;5.00;1.00;;;;;;5041865;28;20035;-48
2023/02/09 01:28:51;;;;;;;8.37;4.97;;;5.20;1.00;;;;;;5032018;28;20037;-53
2023/02/09 01:31:28;;;;;;;7.23;5.20;;;5.10;1.00;;;;;;5026173;28;20056;-49
2023/02/09 01:33:56;;;;;;;8.90;5.93;;;5.00;1.00;;;;;;5032908;28;20071;-53
2023/02/09 01:36:22;;;;;;;11.63;5.83;;;5.20;1.00;;;;;;5032734;28;20438;-53
2023/02/09 01:38:47;;;;;;;11.30;6.23;;;5.20;1.00;;;;;;5031505;28;20025;-50
2023/02/09 01:41:13;;;;;;;7.70;5.40;;;5.10;1.00;;;;;;5026120;28;20140;-48
2023/02/09 01:43:56;;;;;;;10.20;5.93;;;5.20;1.00;;;;;;5032510;28;20089;-48
2023/02/09 01:46:24;;;;;;;7.53;5.03;;;5.40;1.00;;;;;;5032493;28;20037;-49
2023/02/09 01:49:01;;;;;;;10.87;6.23;;;5.20;1.00;;;;;;5032480;28;20132;-48
2023/02/09 01:51:28;;;;;;;9.37;6.10;;;4.80;1.00;;;;;;5032101;28;20032;-50
2023/02/09 01:53:53;;;;;;;9.47;5.93;;;5.00;1.00;;;;;;5032558;28;20033;-48
2023/02/09 01:56:26;;;;;;;8.53;6.20;;;5.00;1.00;;;;;;5027715;28;20040;-48
2023/02/09 01:58:52;;;;;;;7.93;5.40;;;5.00;1.00;;;;;;5032697;28;20079;-48
2023/02/09 02:01:19;;;;;;;8.23;5.23;;;4.90;1.00;;;;;;5030685;28;20423;-48
2023/02/09 02:03:45;;;;;;;10.70;5.40;;;5.00;1.00;;;;;;5031961;28;20041;-52
2023/02/09 02:06:14;;;;;;;10.00;6.40;;;5.00;1.00;;;;;;5031482;28;20044;-50
2023/02/09 02:08:57;;;;;;;9.20;5.57;;;4.80;1.00;;;;;;5031843;28;20030;-50
2023/02/09 02:11:27;;;;;;;8.87;5.60;;;4.80;1.00;;;;;;5030970;28;20025;-47
2023/02/09 02:13:52;;;;;;;10.17;6.33;;;5.00;1.00;;;;;;5031082;28;20486;-50
2023/02/09 02:16:36;;;;;;;8.43;5.87;;;5.00;1.00;;;;;;5031083;28;20033;-50
2023/02/09 02:19:13;;;;;;;9.53;5.67;;;4.90;1.00;;;;;;5018888;28;20028;-51
2023/02/09 02:22:13;;;;;;;8.43;5.80;;;5.00;1.00;;;;;;5030659;28;20030;-48
2023/02/09 02:25:04;;;;;;;8.77;5.67;;;4.80;1.00;;;;;;5038086;28;20049;-51
2023/02/09 02:27:35;;;;;;;13.97;7.57;;;4.90;1.00;;;;;;5029540;28;20026;-47
2023/02/09 02:30:22;;;;;;;11.27;5.90;;;5.00;1.00;;;;;;5030884;28;20111;-49
2023/02/09 02:33:12;;;;;;;10.97;5.90;;;5.00;1.00;;;;;;5030327;28;20475;-48
2023/02/09 02:35:49;;;;;;;9.40;6.10;;;4.70;1.00;;;;;;5028907;28;20052;-48
2023/02/09 02:38:37;;;;;;;9.57;6.20;;;4.70;1.00;;;;;;5031873;28;20041;-48
2023/02/09 02:41:11;;;;;;;9.13;6.23;;;4.60;1.00;;;;;;5031601;28;20030;-47
2023/02/09 02:44:01;;;;;;;9.05;6.50;;;4.40;1.00;;;;;;5031932;28;20027;-47
2023/02/09 02:46:45;;;;;;;9.33;5.80;;;4.70;1.00;;;;;;5030475;28;20124;-47
2023/02/09 02:49:38;;;;;;;10.60;6.00;;;4.70;1.00;;;;;;5018465;28;20064;-47
2023/02/09 02:52:07;;;;;;;11.07;6.50;;;4.80;1.00;;;;;;5030834;28;20509;-48
2023/02/09 02:54:40;;;;;;;10.13;5.87;;;4.50;1.00;;;;;;5031637;28;20022;-48
2023/02/09 02:57:12;;;;;;;12.33;6.40;;;4.80;1.00;;;;;;5031360;28;20061;-48
2023/02/09 03:00:04;;;;;;;9.30;6.37;;;4.70;1.00;;;;;;5031942;28;20075;-47
2023/02/09 03:02:36;;;;;;;9.97;6.00;;;4.60;1.00;;;;;;5030397;28;20033;-49
2023/02/09 03:05:03;;;;;;;9.67;5.73;;;4.90;1.00;;;;;;5031050;28;20049;-47
2023/02/09 03:07:29;;;;;;;8.67;6.13;;;4.80;1.00;;;;;;5030753;28;20052;-48
2023/02/09 03:09:56;;;;;;;10.50;6.53;;;4.90;1.00;;;;;;5020251;28;20038;-52
2023/02/09 03:12:50;;;;;;;8.43;5.57;;;4.90;1.00;;;;;;5031466;28;20026;-50
2023/02/09 03:15:31;;;;;;;10.68;6.45;;;4.80;1.00;;;;;;5031758;28;20087;-48
2023/02/09 03:18:12;;;;;;;10.07;6.57;;;4.90;1.00;;;;;;5035261;28;20017;-49
2023/02/09 03:20:47;;;;;;;10.83;5.83;;;4.80;1.00;;;;;;5035173;28;20047;-48
2023/02/09 03:23:28;;;;;;;10.57;6.80;;;4.80;1.00;;;;;;5022093;28;20129;-47
2023/02/09 03:25:55;;;;;;;9.63;6.33;;;4.70;1.00;;;;;;5021843;28;20100;-50
2023/02/09 03:28:26;;;;;;;9.03;6.27;;;4.80;1.00;;;;;;5034994;28;20033;-49
2023/02/09 03:30:52;;;;;;;9.30;6.97;;;4.80;1.00;;;;;;5034676;28;20037;-51
2023/02/09 03:33:20;;;;;;;9.43;7.07;;;4.60;1.00;;;;;;5032992;28;20079;-47
2023/02/09 03:35:49;;;;;;;7.90;5.63;;;4.60;1.00;;;;;;5034364;28;20045;-47
2023/02/09 03:38:15;;;;;;;10.43;6.07;;;4.70;1.00;;;;;;5034511;28;20391;-47
2023/02/09 03:40:41;;;;;;;9.30;6.40;;;4.70;1.00;;;;;;5034441;28;20032;-47
2023/02/09 03:43:06;;;;;;;10.37;7.07;;;4.70;1.00;;;;;;5034984;28;20536;-48
2023/02/09 03:45:32;;;;;;;11.03;6.40;;;4.70;1.00;;;;;;5034487;28;20035;-47
2023/02/09 03:47:57;;;;;;;9.87;6.43;;;4.90;1.00;;;;;;5034744;28;20056;-49
2023/02/09 03:50:23;;;;;;;10.87;7.17;;;4.90;1.00;;;;;;5034173;28;20143;-48
2023/02/09 03:52:49;;;;;;;10.73;6.73;;;4.70;1.00;;;;;;5034214;28;20021;-47
2023/02/09 03:55:15;;;;;;;12.60;6.00;;;4.60;1.00;;;;;;5034502;28;20018;-47
2023/02/09 03:57:40;;;;;;;11.43;6.93;;;4.80;1.00;;;;;;5034249;28;20198;-48
2023/02/09 04:00:07;;;;;;;9.83;6.70;;;4.80;1.00;;;;;;5034672;28;20052;-50
2023/02/09 04:02:33;;;;;;;11.47;7.43;;;4.90;1.00;;;;;;5034297;28;20021;-47
2023/02/09 04:04:58;;;;;;;9.27;6.83;;;4.90;1.00;;;;;;5033910;28;20068;-47
2023/02/09 04:07:24;;;;;;;10.33;6.37;;;4.90;1.00;;;;;;5034032;28;20490;-47
2023/02/09 04:09:50;;;;;;;10.60;7.00;;;5.00;1.00;;;;;;5033657;28;20498;-46
2023/02/09 04:12:15;;;;;;;9.00;6.57;;;4.90;1.00;;;;;;5033542;28;20021;-47
2023/02/09 04:14:41;;;;;;;11.10;6.77;;;4.70;1.00;;;;;;5033472;28;20060;-47
2023/02/09 04:17:06;;;;;;;9.77;6.67;;;4.70;1.00;;;;;;5024105;28;20085;-48
2023/02/09 04:19:32;;;;;;;11.93;7.70;;;4.90;1.00;;;;;;5024176;28;20030;-47
2023/02/09 04:21:59;;;;;;;8.83;5.87;;;4.80;1.00;;;;;;5034386;28;20029;-52
2023/02/09 04:24:25;;;;;;;10.37;7.23;;;4.90;1.00;;;;;;5033803;28;20052;-50
2023/02/09 04:26:51;;;;;;;11.27;6.57;;;4.90;1.00;;;;;;5032902;28;20443;-47
2023/02/09 04:29:17;;;;;;;10.87;6.63;;;5.00;1.00;;;;;;5033493;28;20428;-52
2023/02/09 04:31:43;;;;;;;12.23;7.00;;;5.00;1.00;;;;;;5033913;28;20021;-47
2023/02/09 04:34:08;;;;;;;11.27;7.00;;;4.80;1.00;;;;;;5033745;28;20498;-47
2023/02/09 04:36:34;;;;;;;9.97;6.67;;;4.90;1.00;;;;;;5033490;28;20025;-47
2023/02/09 04:38:59;;;;;;;9.90;6.80;;;4.80;1.00;;;;;;5033783;28;20538;-47
2023/02/09 04:41:25;;;;;;;9.80;6.37;;;4.80;1.00;;;;;;5033341;28;20474;-47
2023/02/09 04:43:50;;;;;;;11.33;6.90;;;4.80;1.00;;;;;;5033677;28;20031;-47
2023/02/09 04:46:17;;;;;;;9.83;6.40;;;4.80;1.00;;;;;;5033261;28;20021;-47
2023/02/09 04:48:44;;;;;;;11.83;7.50;;;4.80;1.00;;;;;;5019910;28;20042;-47
2023/02/09 04:51:09;;;;;;;9.97;7.00;;;4.40;1.00;;;;;;5031338;28;20053;-48
2023/02/09 04:53:35;;;;;;;9.43;6.87;;;4.50;1.00;;;;;;5033427;28;20057;-47
2023/02/09 04:56:01;;;;;;;10.60;7.53;;;4.60;1.00;;;;;;5033369;28;20060;-48
2023/02/09 05:01:20;;;;;;;11.07;6.80;;;4.70;1.00;;;;;;5030576;28;20605;-48
2023/02/09 05:03:45;;;;;;;11.85;7.28;;;4.70;1.00;;;;;;5017562;28;20095;-50
2023/02/09 05:06:11;;;;;;;10.03;7.10;;;4.80;1.00;;;;;;5032811;28;20041;-47
2023/02/09 05:08:37;;;;;;;8.93;6.73;;;4.70;1.00;;;;;;5033093;28;20088;-47
2023/02/09 05:11:02;;;;;;;10.27;6.83;;;4.70;1.00;;;;;;5032185;28;20037;-47
2023/02/09 05:13:28;;;;;;;14.37;7.63;;;4.60;1.00;;;;;;5032368;28;20478;-47
2023/02/09 05:15:54;;;;;;;8.53;6.70;;;4.50;1.00;;;;;;5032671;28;20063;-46
2023/02/09 05:18:19;;;;;;;11.17;7.23;;;4.50;1.00;;;;;;5033620;28;20026;-47
2023/02/09 05:20:46;;;;;;;9.53;7.00;;;4.70;1.00;;;;;;5032920;28;20117;-48
2023/02/09 05:23:12;;;;;;;13.90;7.53;;;4.70;1.00;;;;;;5033172;28;20470;-47
2023/02/09 05:25:38;;;;;;;11.87;7.77;;;4.80;1.00;;;;;;5031232;28;20061;-47
2023/02/09 05:28:04;;;;;;;9.80;7.60;;;4.70;1.00;;;;;;5032734;28;20423;-47
2023/02/09 05:30:30;;;;;;;10.17;6.97;;;4.70;1.00;;;;;;5032833;28;20091;-47
2023/02/09 05:32:57;;;;;;;10.23;6.93;;;4.80;1.00;;;;;;5032735;28;20399;-46
2023/02/09 05:35:22;;;;;;;10.17;6.70;;;4.70;1.00;;;;;;5032457;28;20017;-47
2023/02/09 05:37:48;;;;;;;11.03;6.97;;;4.60;1.00;;;;;;5030501;28;20407;-49
2023/02/09 05:40:14;;;;;;;9.90;6.53;;;4.80;1.00;;;;;;5032567;28;20475;-47
2023/02/09 05:42:40;;;;;;;12.57;7.43;;;4.80;1.00;;;;;;5031960;28;20026;-51
2023/02/09 05:45:07;;;;;;;10.93;6.80;;;4.60;1.00;;;;;;5032484;28;20017;-47
2023/02/09 05:47:33;;;;;;;10.57;6.77;;;4.50;1.00;;;;;;5032202;28;20167;-48
2023/02/09 05:49:58;;;;;;;11.70;6.80;;;4.60;1.00;;;;;;5032378;28;20116;-46
2023/02/09 05:52:24;;;;;;;11.30;6.83;;;4.50;1.00;;;;;;5032037;28;20032;-47
2023/02/09 05:54:49;;;;;;;11.17;6.77;;;4.60;1.00;;;;;;5029065;28;20026;-48
2023/02/09 05:57:16;;;;;;;14.13;7.17;;;4.60;1.00;;;;;;5032210;28;20026;-47
2023/02/09 05:59:41;;;;;;;9.77;6.57;;;4.60;1.00;;;;;;5032027;28;20403;-48
2023/02/09 06:02:08;;;;;;;11.17;7.03;;;4.60;1.00;;;;;;5032221;28;20140;-47
2023/02/09 06:04:33;;;;;;;10.13;7.03;;;4.60;1.00;;;;;;5031640;28;20117;-47
2023/02/09 06:06:59;;;;;;;11.20;7.27;;;4.60;1.00;;;;;;5031408;28;20029;-46
2023/02/09 06:09:26;;;;;;;13.00;6.90;;;4.40;1.00;;;;;;5032359;28;20034;-47
2023/02/09 06:11:51;;;;;;;10.17;7.53;;;4.60;1.00;;;;;;5031575;28;20519;-47
2023/02/09 06:14:17;;;;;;;11.43;7.67;;;4.80;1.00;;;;;;5032093;28;20183;-47
2023/02/09 06:16:43;;;;;;;11.47;7.63;;;4.70;1.00;;;;;;5031580;28;20478;-48
2023/02/09 06:19:14;;;;;;;12.37;6.90;;;4.70;1.00;;;;;;5030328;28;20364;-47
2023/02/09 06:21:40;;;;;;;11.13;6.67;;;4.60;1.00;;;;;;5032119;28;20044;-49
2023/02/09 06:24:06;;;;;;;10.87;7.23;;;4.80;1.00;;;;;;5031520;28;20479;-48
2023/02/09 06:26:31;;;;;;;11.63;7.13;;;4.60;1.00;;;;;;5031517;28;20038;-49
2023/02/09 06:28:57;;;;;;;9.47;6.83;;;4.50;1.00;;;;;;5031879;28;20114;-50
2023/02/09 06:31:22;;;;;;;10.73;7.70;;;4.70;1.00;;;;;;5031462;28;20056;-50
2023/02/09 06:33:48;;;;;;;11.53;7.03;;;4.60;1.00;;;;;;5026918;28;20164;-47
2023/02/09 06:36:13;;;;;;;13.40;6.97;;;4.60;1.00;;;;;;5027144;28;20037;-50
2023/02/09 06:38:39;;;;;;;12.63;7.77;;;4.60;1.00;;;;;;5031806;28;20105;-47
2023/02/09 06:41:05;;;;;;;12.60;7.63;;;4.80;1.00;;;;;;5031609;28;20030;-47
2023/02/09 06:43:31;;;;;;;10.23;6.70;;;4.70;1.00;;;;;;5030253;28;20511;-50
2023/02/09 06:45:56;;;;;;;12.23;7.50;;;4.60;1.00;;;;;;5031405;28;20509;-49
2023/02/09 06:48:22;;;;;;;10.37;7.30;;;4.50;1.00;;;;;;5031272;28;20030;-47
2023/02/09 06:50:48;;;;;;;10.40;6.10;;;4.60;1.00;;;;;;5033533;28;20026;-47
2023/02/09 06:53:13;;;;;;;9.80;7.80;;;4.70;1.00;;;;;;5035749;28;20498;-48
2023/02/09 06:55:39;;;;;;;10.63;7.17;;;4.80;1.00;;;;;;5035476;28;20037;-48
2023/02/09 06:58:05;;;;;;;8.97;6.67;;;4.80;1.00;;;;;;5035561;28;20128;-47
2023/02/09 07:00:31;;;;;;;10.50;6.73;;;4.70;1.00;;;;;;5035103;28;20553;-49
2023/02/09 07:02:57;;;;;;;9.63;6.83;;;4.90;1.00;;;;;;5034894;28;20037;-47
2023/02/09 07:05:23;;;;;;;10.80;6.90;;;4.90;1.00;;;;;;5035681;28;20033;-47
2023/02/09 07:07:49;;;;;;;11.17;7.03;;;4.90;1.00;;;;;;5034456;28;20053;-47
2023/02/09 07:10:16;;;;;;;8.60;6.27;;;4.80;1.00;;;;;;5039557;28;20029;-48
2023/02/09 07:12:45;;;;;;;11.03;7.23;;;4.90;1.00;;;;;;5038629;28;20032;-51
2023/02/09 07:15:12;;;;;;;11.63;7.93;;;4.70;1.00;;;;;;5034248;28;20486;-48
2023/02/09 07:17:38;;;;;;;10.17;6.63;;;4.90;1.00;;;;;;5036426;28;20075;-47
2023/02/09 07:20:05;;;;;;;10.50;6.77;;;4.90;1.00;;;;;;5040975;28;20425;-47
2023/02/09 07:22:31;;;;;;;12.20;7.50;;;4.90;1.00;;;;;;5040096;28;20024;-49
2023/02/09 07:24:57;;;;;;;11.10;6.60;;;5.00;1.00;;;;;;5036477;28;20034;-47
2023/02/09 07:27:22;;;;;;;13.80;7.47;;;5.10;1.00;;;;;;5037026;28;20467;-47
2023/02/09 07:29:48;;;;;;;9.30;5.90;;;5.00;1.00;;;;;;5037100;28;20033;-47
2023/02/09 07:32:14;;;;;;;10.60;7.10;;;5.00;1.00;;;;;;5033582;28;20030;-47
2023/02/09 07:34:40;;;;;;;11.50;6.73;;;5.00;1.00;;;;;;5039888;28;20129;-48
2023/02/09 07:37:06;;;;;;;11.83;6.63;;;4.90;1.00;;;;;;5042412;28;20158;-47
2023/02/09 07:39:31;;;;;;;9.83;6.50;;;4.90;1.00;;;;;;5043372;28;20033;-47
2023/02/09 07:41:57;;;;;;;11.30;7.60;;;4.90;1.00;;;;;;5034711;28;20529;-47
2023/02/09 07:44:24;;;;;;;12.03;7.00;;;4.90;1.00;;;;;;5034529;28;20111;-50
2023/02/09 07:46:50;;;;;;;9.43;6.13;;;4.80;1.00;;;;;;5032919;28;20055;-47
2023/02/09 07:49:16;;;;;;;13.37;7.50;;;4.90;1.00;;;;;;5034549;28;20495;-46
2023/02/09 07:51:42;;;;;;;9.63;6.17;;;4.80;1.00;;;;;;5034380;28;20473;-47
2023/02/09 07:54:12;;;;;;;10.93;6.40;;;4.80;1.00;;;;;;5034427;28;20364;-47
2023/02/09 07:56:38;;;;;;;12.47;7.13;;;4.80;1.00;;;;;;5034450;28;20064;-47
2023/02/09 07:59:03;;;;;;;11.67;6.73;;;4.80;1.00;;;;;;5033652;28;20116;-52
2023/02/09 08:01:31;;;;;;;9.97;6.27;;;4.70;1.00;;;;;;5036172;28;20021;-49
2023/02/09 08:03:57;;;;;;;11.53;7.20;;;4.80;1.00;;;;;;5039828;28;20219;-48
2023/02/09 08:06:22;;;;;;;9.33;6.33;;;4.70;1.00;;;;;;5024929;28;20647;-48
2023/02/09 08:08:49;;;;;;;9.83;6.50;;;4.70;1.00;;;;;;5029920;28;20064;-48
2023/02/09 08:11:28;;;;;;;8.37;6.70;;;4.80;1.00;;;;;;5033943;28;20033;-48
2023/02/09 08:13:56;;;;;;;12.00;6.57;;;4.60;1.00;;;;;;5034211;28;20025;-46
2023/02/09 08:16:28;;;;;;;10.90;6.50;;;4.80;1.00;;;;;;5042638;28;20036;-48
2023/02/09 08:18:58;;;;;;;11.40;7.07;;;4.80;1.00;;;;;;5037329;28;20207;-47
2023/02/09 08:21:26;;;;;;;13.13;7.67;;;4.70;1.00;;;;;;5033890;28;20125;-49
2023/02/09 08:23:55;;;;;;;9.73;6.80;;;4.80;1.00;;;;;;5032642;28;20052;-48
2023/02/09 08:26:21;;;;;;;7.40;5.70;;;4.80;1.00;;;;;;5033927;28;20037;-47
2023/02/09 08:28:47;;;;;;;11.07;6.83;;;4.90;1.00;;;;;;5033769;28;20041;-47
2023/02/09 08:31:15;;;;;;;11.50;7.43;;;4.80;1.00;;;;;;5033649;28;20175;-47
2023/02/09 08:33:42;;;;;;;10.27;7.00;;;4.80;1.00;;;;;;5038575;28;20025;-49
2023/02/09 08:36:09;;;;;;;9.43;5.97;;;4.80;1.00;;;;;;5034047;28;20040;-49
2023/02/09 08:38:35;;;;;;;10.03;6.40;;;4.70;1.00;;;;;;5034311;28;20022;-48
2023/02/09 08:41:08;;;;;;;10.63;6.57;;;4.90;1.00;;;;;;5034188;28;20022;-47
2023/02/09 08:43:50;;;;;;;12.13;6.80;;;4.90;1.00;;;;;;5033638;28;20037;-47
2023/02/09 08:46:16;;;;;;;11.00;6.33;;;4.80;1.00;;;;;;5027988;28;20499;-47
2023/02/09 08:48:44;;;;;;;9.27;6.47;;;4.80;1.00;;;;;;5024334;28;20033;-46
2023/02/09 08:51:11;;;;;;;11.10;6.90;;;4.80;1.00;;;;;;5032247;28;20345;-49
2023/02/09 08:53:37;;;;;;;11.53;6.40;;;4.90;1.00;;;;;;5033584;28;20029;-48
2023/02/09 08:56:03;;;;;;;11.80;7.57;;;4.90;1.00;;;;;;5031593;28;20026;-49
2023/02/09 08:58:29;;;;;;;11.70;7.60;;;5.00;1.00;;;;;;5033487;28;20014;-47
2023/02/09 09:00:55;;;;;;;12.20;6.73;;;4.90;1.00;;;;;;5033097;28;20394;-47
2023/02/09 09:03:26;;;;;;;10.33;6.47;;;5.00;1.00;;;;;;5032995;28;20112;-46
2023/02/09 09:05:58;;;;;;;10.97;6.50;;;5.00;1.00;;;;;;5033244;28;20109;-48
2023/02/09 09:08:24;;;;;;;8.83;6.53;;;5.00;1.00;;;;;;5033265;28;20099;-48
2023/02/09 09:10:49;;;;;;;12.57;6.40;;;5.00;1.00;;;;;;5031515;28;20030;-47
2023/02/09 09:13:15;;;;;;;9.90;6.93;;;5.00;1.00;;;;;;5032494;28;20037;-48
2023/02/09 09:15:41;;;;;;;10.27;6.60;;;5.00;1.00;;;;;;5033464;28;20021;-48
2023/02/09 09:18:08;;;;;;;12.03;6.70;;;4.90;1.00;;;;;;5032891;28;20033;-51
2023/02/09 09:20:33;;;;;;;12.23;7.90;;;5.00;1.00;;;;;;5031013;28;20438;-47
2023/02/09 09:23:00;;;;;;;12.07;6.73;;;5.10;1.00;;;;;;5032359;28;20045;-47
2023/02/09 09:25:26;;;;;;;10.57;6.87;;;5.10;1.00;;;;;;5032105;28;20021;-49
2023/02/09 09:27:52;;;;;;;12.23;7.40;;;5.20;1.00;;;;;;5033155;28;20096;-51
2023/02/09 09:30:23;;;;;;;12.00;6.70;;;5.30;1.00;;;;;;5032792;28;20068;-51
2023/02/09 09:32:49;;;;;;;10.60;7.30;;;5.10;1.00;;;;;;5032983;28;20079;-54
2023/02/09 09:35:15;;;;;;;11.57;7.40;;;5.30;1.00;;;;;;5020204;28;20038;-50
2023/02/09 09:37:40;;;;;;;10.57;7.23;;;5.20;1.00;;;;;;5032877;28;20037;-50
2023/02/09 09:40:06;;;;;;;11.77;7.17;;;5.30;1.00;;;;;;5031330;28;20541;-52
2023/02/09 09:42:40;;;;;;;10.07;6.97;;;5.40;1.00;;;;;;5018962;28;20037;-53
2023/02/09 09:45:12;;;;;;;9.93;6.93;;;5.30;1.00;;;;;;5039656;28;20499;-52
2023/02/09 09:47:41;;;;;;;10.60;6.93;;;5.30;1.00;;;;;;5032830;28;20057;-53
2023/02/09 09:50:23;;;;;;;13.03;7.70;;;5.30;1.00;;;;;;5030391;28;20443;-57
2023/02/09 09:53:00;;;;;;;10.47;7.07;;;5.40;1.00;;;;;;5029753;28;20029;-53
2023/02/09 09:55:29;;;;;;;9.40;6.13;;;5.30;1.00;;;;;;5029748;28;20025;-52
2023/02/09 09:57:59;;;;;;;10.47;7.03;;;5.30;1.00;;;;;;5041145;28;20060;-48
2023/02/09 10:00:36;;;;;;;10.50;6.57;;;5.30;1.00;;;;;;5046482;28;20120;-47
2023/02/09 10:03:03;;;;;;;11.50;7.03;;;5.40;1.00;;;;;;5032776;28;20398;-52
2023/02/09 10:05:37;;;;;;;11.40;8.77;;;5.50;1.00;;;;;;5045711;28;20136;-54
2023/02/09 10:08:09;;;;;;;12.00;8.57;;;5.40;1.00;;;;;;5032791;28;20030;-53
2023/02/09 10:10:48;;;;;;;13.73;7.40;;;5.40;1.00;;;;;;5018240;28;20037;-53
2023/02/09 10:13:23;;;;;;;10.20;7.10;;;5.50;1.00;;;;;;5042084;28;20036;-53
2023/02/09 10:15:52;;;;;;;11.13;7.80;;;5.40;1.00;;;;;;5033033;28;20025;-51
2023/02/09 10:18:24;;;;;;;11.03;7.23;;;5.50;1.00;;;;;;5023060;28;20038;-55
2023/02/09 10:20:55;;;;;;;11.47;7.57;;;5.50;1.00;;;;;;5019546;28;20025;-55
2023/02/09 10:23:35;;;;;;;10.90;7.30;;;5.40;1.00;;;;;;5029381;28;20116;-53
2023/02/09 10:26:08;;;;;;;10.00;7.40;;;5.30;1.00;;;;;;5020091;28;20025;-53
2023/02/09 10:28:48;;;;;;;13.00;7.67;;;5.50;1.00;;;;;;5032062;28;20021;-54
2023/02/09 10:31:18;;;;;;;15.87;8.67;;;5.70;1.00;;;;;;5044211;28;20087;-52
2023/02/09 10:33:45;;;;;;;13.10;7.73;;;5.70;1.00;;;;;;5030805;28;20140;-49
2023/02/09 10:36:26;;;;;;;12.67;7.43;;;5.80;1.00;;;;;;5032104;28;20037;-53
2023/02/09 10:39:02;;;;;;;11.70;7.87;;;5.80;1.00;;;;;;5030762;28;20442;-48
2023/02/09 10:41:31;;;;;;;13.07;7.23;;;5.80;1.00;;;;;;5032246;28;20117;-51
2023/02/09 10:44:14;;;;;;;10.37;7.53;;;5.90;1.00;;;;;;5032192;28;20414;-52
2023/02/09 10:46:40;;;;;;;11.23;7.23;;;6.00;1.00;;;;;;5032010;28;20028;-50
2023/02/09 10:49:34;;;;;;;10.93;7.30;;;5.90;1.00;;;;;;5031878;28;20033;-55
2023/02/09 10:52:13;;;;;;;11.00;8.00;;;5.80;1.00;;;;;;5032244;28;20041;-51
2023/02/09 10:55:05;;;;;;;9.80;7.60;;;5.80;1.00;;;;;;5031894;28;20252;-53
2023/02/09 10:57:37;;;;;;;10.90;8.30;;;5.70;1.00;;;;;;5031764;28;20026;-53
2023/02/09 11:00:28;;;;;;;10.40;7.90;;;5.60;1.00;;;;;;5031927;28;20029;-52
2023/02/09 11:03:02;;;;;;;11.80;7.07;;;5.70;1.00;;;;;;5031513;28;20026;-53
2023/02/09 11:05:34;;;;;;;10.15;7.18;;;5.80;1.00;;;;;;5031597;28;20108;-53
2023/02/09 11:08:34;;;;;;;11.83;8.03;;;5.80;1.00;;;;;;5031254;28;20067;-52
2023/02/09 11:11:22;;;;;;;12.07;8.20;;;5.80;1.00;;;;;;5028292;28;20136;-52
2023/02/09 11:13:47;;;;;;;11.97;8.07;;;6.00;1.00;;;;;;5018987;28;20040;-50
2023/02/09 11:16:36;;;;;;;12.90;8.10;;;5.90;1.00;;;;;;5031464;28;20041;-51
2023/02/09 11:19:21;;;;;;;12.67;7.93;;;6.00;1.00;;;;;;5020028;28;20029;-50
2023/02/09 11:22:12;;;;;;;11.27;8.57;;;5.90;1.00;;;;;;5025630;28;20024;-52
2023/02/09 11:24:52;;;;;;;14.47;9.10;;;5.90;1.00;;;;;;5031449;28;20055;-49
2023/02/09 11:27:50;;;;;;;12.53;8.63;;;6.20;1.00;;;;;;5026134;28;20050;-49
2023/02/09 11:30:34;;;;;;;12.37;8.80;;;6.30;1.00;;;;;;5028207;28;20029;-49
2023/02/09 11:33:15;;;;;;;14.07;7.90;;;6.30;1.00;;;;;;5031780;28;20025;-49
2023/02/09 11:36:02;;;;;;;10.90;8.13;;;6.40;1.00;;;;;;5031010;28;20075;-53
2023/02/09 11:38:50;;;;;;;11.53;8.03;;;6.10;1.00;;;;;;5033425;28;20430;-52
2023/02/09 11:44:35;;;;;;;12.73;8.10;;;6.20;1.00;;;;;;5034847;28;20502;-49
2023/02/09 11:47:05;;;;;;;11.97;8.17;;;6.20;1.00;;;;;;5030686;28;20037;-51
2023/02/09 11:49:45;;;;;;;11.70;7.90;;;6.30;1.00;;;;;;5034515;28;20090;-52
2023/02/09 11:52:22;;;;;;;16.57;9.37;;;6.30;1.00;;;;;;5034673;28;20025;-49
2023/02/09 11:54:51;;;;;;;12.37;8.03;;;6.30;1.00;;;;;;5034847;28;20033;-52
2023/02/09 11:57:34;;;;;;;13.33;8.60;;;6.40;1.00;;;;;;5032018;28;20034;-52
2023/02/09 12:00:04;;;;;;;14.37;8.90;;;6.30;1.00;;;;;;5034661;28;20105;-50
2023/02/09 12:02:50;;;;;;;12.77;9.03;;;6.20;1.00;;;;;;5029434;28;20033;-53
2023/02/09 12:05:18;;;;;;;13.53;9.50;;;6.10;1.00;;;;;;5032679;28;20072;-50
2023/02/09 12:07:59;;;;;;;15.10;9.90;;;6.20;1.00;;;;;;5034259;28;20026;-49
2023/02/09 12:10:33;;;;;;;15.83;9.37;;;6.30;1.00;;;;;;5021971;28;20034;-53
2023/02/09 12:13:08;;;;;;;13.35;9.18;;;6.40;1.00;;;;;;5034188;28;20379;-49
2023/02/09 12:15:44;;;;;;;;;;;6.40;1.00;;;;;;5034554;28;20033;-50
2023/02/09 12:18:23;;;;;;;13.53;9.43;;;6.60;1.00;;;;;;5033874;28;19959;-53
2023/02/09 12:20:48;;;;;;;13.60;9.47;;;6.60;1.00;;;;;;5030491;28;20036;-53
2023/02/09 12:23:24;;;;;;;14.57;9.50;;;6.40;1.00;;;;;;5033775;28;20025;-50
2023/02/09 12:25:59;;;;;;;14.93;9.43;;;6.70;1.00;;;;;;5034142;28;20014;-52
2023/02/09 12:28:31;;;;;;;14.83;9.90;;;6.80;1.00;;;;;;5033521;28;20026;-51
2023/02/09 12:30:57;;;;;;;16.80;10.50;;;6.80;1.00;;;;;;5033813;28;20039;-51
2023/02/09 12:33:22;;;;;;;16.07;9.97;;;6.70;1.00;;;;;;5033796;28;20336;-53
2023/02/09 12:36:11;;;;;;;16.80;10.73;;;6.60;1.00;;;;;;5027085;28;20062;-49
2023/02/09 12:38:49;;;;;;;15.67;10.90;;;6.80;1.00;;;;;;5022662;28;20124;-52
2023/02/09 12:41:34;;;;;;;15.50;10.07;;;6.80;1.00;;;;;;5033704;28;20065;-53
2023/02/09 12:44:08;;;;;;;9.70;7.45;;;6.80;1.00;;;;;;5033613;28;20026;-49
2023/02/09 12:46:43;;;;;;;13.82;9.73;;;6.80;1.00;;;;;;5032066;28;20146;-50
2023/02/09 12:49:11;;;;;;;15.15;10.35;;;6.90;1.00;;;;;;5032123;28;20128;-50
2023/02/09 12:51:48;;;;;;;15.97;11.07;;;7.10;1.00;;;;;;5031702;28;20431;-53
2023/02/09 12:54:42;;;;;;;15.63;11.10;;;6.90;1.00;;;;;;5031790;28;20034;-52
2023/02/09 12:57:13;;;;;;;15.27;9.97;;;7.00;1.00;;;;;;5033373;28;20451;-51
2023/02/09 12:59:48;;;;;;;14.17;10.30;;;7.10;1.00;;;;;;5033508;28;20060;-53
2023/02/09 13:02:29;;;;;;;16.17;10.97;;;7.00;1.00;;;;;;5033075;28;20034;-52
2023/02/09 13:08:32;;;;;;;14.73;10.33;;;6.90;1.00;;;;;;5023472;28;20087;-49
2023/02/09 13:11:17;;;;;;;21.10;11.20;;;6.80;1.00;;;;;;5017945;28;20042;-51
2023/02/09 13:13:56;;;;;;;16.08;11.73;;;6.90;1.00;;;;;;5020100;28;20010;-48
2023/02/09 13:16:22;;;;;;;14.87;11.20;;;7.10;1.00;;;;;;5033110;28;20041;-50
2023/02/09 13:19:14;;;;;;;17.37;10.50;;;7.10;1.00;;;;;;5031446;28;20038;-51
2023/02/09 13:22:07;;;;;;;16.90;11.13;;;7.10;1.00;;;;;;5032670;28;20118;-51
2023/02/09 13:24:40;;;;;;;15.90;10.57;;;7.10;1.00;;;;;;5033026;28;20059;-51
2023/02/09 13:27:18;;;;;;;18.07;10.53;;;7.00;1.00;;;;;;5032517;28;20025;-50